sensor_id;sensor_type;location;lat;lon;timestamp;temperature;humidity
14769;DHT22;7476;49.404;11.152;2024-02-26T00:01:06;1.40;99.90
14769;DHT22;7476;49.404;11.152;2024-02-26T00:03:33;1.20;99.90
14769;DHT22;7476;49.404;11.152;2024-02-26T00:06:01;1.00;99.90
14769;DHT22;7476;49.404;11.152;2024-02-26T00:08:28;0.90;99.90
14769;DHT22;7476;49.404;11.152;2024-02-26T00:10:54;1.10;99.90
14769;DHT22;7476;49.404;11.152;2024-02-26T00:13:21;1.00;99.90
14769;DHT22;7476;49.404;11.152;2024-02-26T00:15:49;0.90;99.90
14769;DHT22;7476;49.404;11.152;2024-02-26T00:18:15;0.90;99.90
14769;DHT22;7476;49.404;11.152;2024-02-26T00:20:42;0.80;99.90
14769;DHT22;7476;49.404;11.152;2024-02-26T00:23:09;0.90;99.90
14769;DHT22;7476;49.404;11.152;2024-02-26T00:25:36;0.70;99.90
14769;DHT22;7476;49.404;11.152;2024-02-26T00:28:03;0.80;99.90
14769;DHT22;7476;49.404;11.152;2024-02-26T00:30:30;0.50;99.90
14769;DHT22;7476;49.404;11.152;2024-02-26T00:32:58;0.30;99.90
14769;DHT22;7476;49.404;11.152;2024-02-26T00:35:24;0.30;99.90
14769;DHT22;7476;49.404;11.152;2024-02-26T00:37:51;0.00;99.90
14769;DHT22;7476;49.404;11.152;2024-02-26T00:40:18;0.20;99.90
14769;DHT22;7476;49.404;11.152;2024-02-26T00:42:44;0.40;99.90
14769;DHT22;7476;49.404;11.152;2024-02-26T00:45:13;0.70;99.90
14769;DHT22;7476;49.404;11.152;2024-02-26T00:47:40;0.70;99.90
14769;DHT22;7476;49.404;11.152;2024-02-26T00:50:09;0.70;99.90
14769;DHT22;7476;49.404;11.152;2024-02-26T00:52:36;0.50;99.90
14769;DHT22;7476;49.404;11.152;2024-02-26T00:55:04;0.20;99.90
14769;DHT22;7476;49.404;11.152;2024-02-26T00:57:30;0.10;99.90
14769;DHT22;7476;49.404;11.152;2024-02-26T00:59:57;-0.10;99.90
14769;DHT22;7476;49.404;11.152;2024-02-26T01:02:24;-0.20;99.90
14769;DHT22;7476;49.404;11.152;2024-02-26T01:04:51;0.00;99.90
14769;DHT22;7476;49.404;11.152;2024-02-26T01:07:19;0.10;99.90
14769;DHT22;7476;49.404;11.152;2024-02-26T01:09:46;0.40;99.90
14769;DHT22;7476;49.404;11.152;2024-02-26T01:12:12;0.20;99.90
14769;DHT22;7476;49.404;11.152;2024-02-26T01:14:39;0.40;99.90
14769;DHT22;7476;49.404;11.152;2024-02-26T01:17:06;0.40;99.90
14769;DHT22;7476;49.404;11.152;2024-02-26T01:19:32;0.30;99.90
14769;DHT22;7476;49.404;11.152;2024-02-26T01:21:59;0.10;99.90
14769;DHT22;7476;49.404;11.152;2024-02-26T01:24:27;0.40;99.90
14769;DHT22;7476;49.404;11.152;2024-02-26T01:26:53;0.40;99.90
14769;DHT22;7476;49.404;11.152;2024-02-26T01:29:20;0.40;99.90
14769;DHT22;7476;49.404;11.152;2024-02-26T01:31:47;0.20;99.90
14769;DHT22;7476;49.404;11.152;2024-02-26T01:34:13;0.10;99.90
14769;DHT22;7476;49.404;11.152;2024-02-26T01:36:40;0.10;99.90
14769;DHT22;7476;49.404;11.152;2024-02-26T01:39:07;0.10;99.90
14769;DHT22;7476;49.404;11.152;2024-02-26T01:41:38;0.00;99.90
14769;DHT22;7476;49.404;11.152;2024-02-26T01:44:06;0.00;99.90
14769;DHT22;7476;49.404;11.152;2024-02-26T01:46:34;0.00;99.90
14769;DHT22;7476;49.404;11.152;2024-02-26T01:49:02;0.00;99.90
14769;DHT22;7476;49.404;11.152;2024-02-26T01:51:29;0.10;99.90
14769;DHT22;7476;49.404;11.152;2024-02-26T01:53:56;0.10;99.90
14769;DHT22;7476;49.404;11.152;2024-02-26T01:56:24;0.10;99.90
14769;DHT22;7476;49.404;11.152;2024-02-26T01:58:55;0.20;99.90
14769;DHT22;7476;49.404;11.152;2024-02-26T02:01:22;0.20;99.90
14769;DHT22;7476;49.404;11.152;2024-02-26T02:03:51;0.20;99.90
14769;DHT22;7476;49.404;11.152;2024-02-26T02:06:19;0.20;99.90
14769;DHT22;7476;49.404;11.152;2024-02-26T02:08:46;0.20;99.90
14769;DHT22;7476;49.404;11.152;2024-02-26T02:11:13;0.20;99.90
14769;DHT22;7476;49.404;11.152;2024-02-26T02:13:40;0.20;99.90
14769;DHT22;7476;49.404;11.152;2024-02-26T02:16:08;0.40;99.90
14769;DHT22;7476;49.404;11.152;2024-02-26T02:18:35;0.90;99.90
14769;DHT22;7476;49.404;11.152;2024-02-26T02:21:03;1.00;99.90
14769;DHT22;7476;49.404;11.152;2024-02-26T02:23:30;1.30;99.90
14769;DHT22;7476;49.404;11.152;2024-02-26T02:25:57;1.60;99.90
14769;DHT22;7476;49.404;11.152;2024-02-26T02:28:26;1.90;99.90
14769;DHT22;7476;49.404;11.152;2024-02-26T02:30:52;2.00;99.90
14769;DHT22;7476;49.404;11.152;2024-02-26T02:33:20;2.00;99.90
14769;DHT22;7476;49.404;11.152;2024-02-26T02:35:47;2.30;99.90
14769;DHT22;7476;49.404;11.152;2024-02-26T02:38:15;2.30;99.90
14769;DHT22;7476;49.404;11.152;2024-02-26T02:40:42;2.40;99.90
14769;DHT22;7476;49.404;11.152;2024-02-26T02:43:08;2.50;99.90
14769;DHT22;7476;49.404;11.152;2024-02-26T02:45:35;2.60;99.90
14769;DHT22;7476;49.404;11.152;2024-02-26T02:48:02;2.70;99.90
14769;DHT22;7476;49.404;11.152;2024-02-26T02:50:28;2.70;99.90
14769;DHT22;7476;49.404;11.152;2024-02-26T02:52:55;2.80;99.90
14769;DHT22;7476;49.404;11.152;2024-02-26T02:55:23;2.70;99.90
14769;DHT22;7476;49.404;11.152;2024-02-26T02:57:50;2.70;99.90
14769;DHT22;7476;49.404;11.152;2024-02-26T03:00:17;2.70;99.90
14769;DHT22;7476;49.404;11.152;2024-02-26T03:02:44;2.80;99.90
14769;DHT22;7476;49.404;11.152;2024-02-26T03:05:11;2.70;99.90
14769;DHT22;7476;49.404;11.152;2024-02-26T03:07:38;2.70;99.90
14769;DHT22;7476;49.404;11.152;2024-02-26T03:10:05;2.50;99.90
14769;DHT22;7476;49.404;11.152;2024-02-26T03:12:34;2.60;99.90
14769;DHT22;7476;49.404;11.152;2024-02-26T03:15:01;2.90;99.90
14769;DHT22;7476;49.404;11.152;2024-02-26T03:17:28;2.80;99.90
14769;DHT22;7476;49.404;11.152;2024-02-26T03:19:54;2.70;99.90
14769;DHT22;7476;49.404;11.152;2024-02-26T03:22:21;2.70;99.90
14769;DHT22;7476;49.404;11.152;2024-02-26T03:24:48;2.70;99.90
14769;DHT22;7476;49.404;11.152;2024-02-26T03:27:15;2.60;99.90
14769;DHT22;7476;49.404;11.152;2024-02-26T03:29:43;2.70;99.90
14769;DHT22;7476;49.404;11.152;2024-02-26T03:32:09;2.60;99.90
14769;DHT22;7476;49.404;11.152;2024-02-26T03:34:36;2.50;99.90
14769;DHT22;7476;49.404;11.152;2024-02-26T03:37:04;2.50;99.90
14769;DHT22;7476;49.404;11.152;2024-02-26T03:39:31;2.30;99.90
14769;DHT22;7476;49.404;11.152;2024-02-26T03:41:58;2.30;99.90
14769;DHT22;7476;49.404;11.152;2024-02-26T03:44:24;2.10;99.90
14769;DHT22;7476;49.404;11.152;2024-02-26T03:46:52;2.10;99.90
14769;DHT22;7476;49.404;11.152;2024-02-26T03:49:19;2.10;99.90
14769;DHT22;7476;49.404;11.152;2024-02-26T03:51:46;1.90;99.90
14769;DHT22;7476;49.404;11.152;2024-02-26T03:54:12;1.70;99.90
14769;DHT22;7476;49.404;11.152;2024-02-26T03:56:39;1.70;99.90
14769;DHT22;7476;49.404;11.152;2024-02-26T03:59:06;1.70;99.90
14769;DHT22;7476;49.404;11.152;2024-02-26T04:01:32;1.60;99.90
14769;DHT22;7476;49.404;11.152;2024-02-26T04:04:00;1.60;99.90
14769;DHT22;7476;49.404;11.152;2024-02-26T04:06:27;1.60;99.90
14769;DHT22;7476;49.404;11.152;2024-02-26T04:08:54;1.50;99.90
14769;DHT22;7476;49.404;11.152;2024-02-26T04:11:20;1.60;99.90
14769;DHT22;7476;49.404;11.152;2024-02-26T04:13:47;1.70;99.90
14769;DHT22;7476;49.404;11.152;2024-02-26T04:16:15;1.80;99.90
14769;DHT22;7476;49.404;11.152;2024-02-26T04:18:41;2.00;99.90
14769;DHT22;7476;49.404;11.152;2024-02-26T04:21:10;2.00;99.90
14769;DHT22;7476;49.404;11.152;2024-02-26T04:23:36;2.10;99.90
14769;DHT22;7476;49.404;11.152;2024-02-26T04:26:04;2.10;99.90
14769;DHT22;7476;49.404;11.152;2024-02-26T04:28:31;2.10;99.90
14769;DHT22;7476;49.404;11.152;2024-02-26T04:30:57;2.00;99.90
14769;DHT22;7476;49.404;11.152;2024-02-26T04:33:24;1.90;99.90
14769;DHT22;7476;49.404;11.152;2024-02-26T04:35:51;1.90;99.90
14769;DHT22;7476;49.404;11.152;2024-02-26T04:38:19;1.90;99.90
14769;DHT22;7476;49.404;11.152;2024-02-26T04:40:45;1.90;99.90
14769;DHT22;7476;49.404;11.152;2024-02-26T04:43:12;1.90;99.90
14769;DHT22;7476;49.404;11.152;2024-02-26T04:45:39;1.90;99.90
14769;DHT22;7476;49.404;11.152;2024-02-26T04:48:07;1.90;99.90
14769;DHT22;7476;49.404;11.152;2024-02-26T04:50:33;1.90;99.90
14769;DHT22;7476;49.404;11.152;2024-02-26T04:53:00;1.90;99.90
14769;DHT22;7476;49.404;11.152;2024-02-26T04:55:28;2.00;99.90
14769;DHT22;7476;49.404;11.152;2024-02-26T04:57:55;2.00;99.90
14769;DHT22;7476;49.404;11.152;2024-02-26T05:00:21;1.90;99.90
14769;DHT22;7476;49.404;11.152;2024-02-26T05:02:48;1.90;99.90
14769;DHT22;7476;49.404;11.152;2024-02-26T05:05:14;2.00;99.90
14769;DHT22;7476;49.404;11.152;2024-02-26T05:07:41;2.00;99.90
14769;DHT22;7476;49.404;11.152;2024-02-26T05:10:09;2.20;99.90
14769;DHT22;7476;49.404;11.152;2024-02-26T05:12:37;2.30;99.90
14769;DHT22;7476;49.404;11.152;2024-02-26T05:15:05;2.40;99.90
14769;DHT22;7476;49.404;11.152;2024-02-26T05:17:31;2.40;99.90
14769;DHT22;7476;49.404;11.152;2024-02-26T05:19:59;2.30;99.90
14769;DHT22;7476;49.404;11.152;2024-02-26T05:22:25;2.20;99.90
14769;DHT22;7476;49.404;11.152;2024-02-26T05:24:52;2.20;99.90
14769;DHT22;7476;49.404;11.152;2024-02-26T05:27:19;2.10;99.90
14769;DHT22;7476;49.404;11.152;2024-02-26T05:29:47;2.10;99.90
14769;DHT22;7476;49.404;11.152;2024-02-26T05:32:14;2.10;99.90
14769;DHT22;7476;49.404;11.152;2024-02-26T05:34:40;2.20;99.90
14769;DHT22;7476;49.404;11.152;2024-02-26T05:37:07;2.20;99.90
14769;DHT22;7476;49.404;11.152;2024-02-26T05:39:34;2.20;99.90
14769;DHT22;7476;49.404;11.152;2024-02-26T05:42:00;2.20;99.90
14769;DHT22;7476;49.404;11.152;2024-02-26T05:44:27;2.20;99.90
14769;DHT22;7476;49.404;11.152;2024-02-26T05:46:55;2.20;99.90
14769;DHT22;7476;49.404;11.152;2024-02-26T05:49:22;2.10;99.90
14769;DHT22;7476;49.404;11.152;2024-02-26T05:51:48;2.30;99.90
14769;DHT22;7476;49.404;11.152;2024-02-26T05:54:15;2.50;99.90
14769;DHT22;7476;49.404;11.152;2024-02-26T05:56:42;2.60;99.90
14769;DHT22;7476;49.404;11.152;2024-02-26T05:59:09;2.60;99.90
14769;DHT22;7476;49.404;11.152;2024-02-26T06:01:35;2.60;99.90
14769;DHT22;7476;49.404;11.152;2024-02-26T06:04:03;2.50;99.90
14769;DHT22;7476;49.404;11.152;2024-02-26T06:06:30;2.50;99.90
14769;DHT22;7476;49.404;11.152;2024-02-26T06:08:57;2.40;99.90
14769;DHT22;7476;49.404;11.152;2024-02-26T06:11:24;2.50;99.90
14769;DHT22;7476;49.404;11.152;2024-02-26T06:13:50;2.50;99.90
14769;DHT22;7476;49.404;11.152;2024-02-26T06:16:17;2.50;99.90
14769;DHT22;7476;49.404;11.152;2024-02-26T06:18:44;2.40;99.90
14769;DHT22;7476;49.404;11.152;2024-02-26T06:21:12;2.30;99.90
14769;DHT22;7476;49.404;11.152;2024-02-26T06:23:39;2.50;99.90
14769;DHT22;7476;49.404;11.152;2024-02-26T06:26:05;2.50;99.90
14769;DHT22;7476;49.404;11.152;2024-02-26T06:28:32;2.50;99.90
14769;DHT22;7476;49.404;11.152;2024-02-26T06:31:01;2.60;99.90
14769;DHT22;7476;49.404;11.152;2024-02-26T06:33:28;2.60;99.90
14769;DHT22;7476;49.404;11.152;2024-02-26T06:35:54;2.60;99.90
14769;DHT22;7476;49.404;11.152;2024-02-26T06:38:22;2.70;99.90
14769;DHT22;7476;49.404;11.152;2024-02-26T06:40:49;2.80;99.90
14769;DHT22;7476;49.404;11.152;2024-02-26T06:43:16;2.90;99.90
14769;DHT22;7476;49.404;11.152;2024-02-26T06:45:42;3.00;99.90
14769;DHT22;7476;49.404;11.152;2024-02-26T06:48:09;3.00;99.90
14769;DHT22;7476;49.404;11.152;2024-02-26T06:50:36;3.10;99.90
14769;DHT22;7476;49.404;11.152;2024-02-26T06:53:03;3.20;99.90
14769;DHT22;7476;49.404;11.152;2024-02-26T06:55:31;3.30;99.90
14769;DHT22;7476;49.404;11.152;2024-02-26T06:57:57;3.40;99.90
14769;DHT22;7476;49.404;11.152;2024-02-26T07:00:24;3.40;99.90
14769;DHT22;7476;49.404;11.152;2024-02-26T07:02:51;3.50;99.90
14769;DHT22;7476;49.404;11.152;2024-02-26T07:05:17;3.60;99.90
14769;DHT22;7476;49.404;11.152;2024-02-26T07:07:44;3.60;99.90
14769;DHT22;7476;49.404;11.152;2024-02-26T07:10:11;3.70;99.90
14769;DHT22;7476;49.404;11.152;2024-02-26T07:12:39;3.80;99.90
14769;DHT22;7476;49.404;11.152;2024-02-26T07:15:06;3.90;99.90
14769;DHT22;7476;49.404;11.152;2024-02-26T07:17:33;3.90;99.90
14769;DHT22;7476;49.404;11.152;2024-02-26T07:20:00;4.00;99.90
14769;DHT22;7476;49.404;11.152;2024-02-26T07:22:29;4.10;99.90
14769;DHT22;7476;49.404;11.152;2024-02-26T07:24:56;4.20;99.90
14769;DHT22;7476;49.404;11.152;2024-02-26T07:27:23;4.20;99.90
14769;DHT22;7476;49.404;11.152;2024-02-26T07:29:51;4.30;99.90
14769;DHT22;7476;49.404;11.152;2024-02-26T07:32:18;4.40;99.90
14769;DHT22;7476;49.404;11.152;2024-02-26T07:34:44;4.50;99.90
14769;DHT22;7476;49.404;11.152;2024-02-26T07:37:11;4.70;99.90
14769;DHT22;7476;49.404;11.152;2024-02-26T07:39:38;4.90;99.90
14769;DHT22;7476;49.404;11.152;2024-02-26T07:42:05;5.00;99.90
14769;DHT22;7476;49.404;11.152;2024-02-26T07:44:32;5.20;99.90
14769;DHT22;7476;49.404;11.152;2024-02-26T07:47:00;5.40;1.00
14769;DHT22;7476;49.404;11.152;2024-02-26T07:49:27;5.60;1.00
14769;DHT22;7476;49.404;11.152;2024-02-26T07:51:53;5.80;1.00
14769;DHT22;7476;49.404;11.152;2024-02-26T07:54:23;6.00;1.00
14769;DHT22;7476;49.404;11.152;2024-02-26T07:56:50;6.10;1.00
14769;DHT22;7476;49.404;11.152;2024-02-26T07:59:16;6.40;1.00
14769;DHT22;7476;49.404;11.152;2024-02-26T08:01:43;6.60;1.00
14769;DHT22;7476;49.404;11.152;2024-02-26T08:04:12;6.50;1.00
14769;DHT22;7476;49.404;11.152;2024-02-26T08:06:39;6.50;1.00
14769;DHT22;7476;49.404;11.152;2024-02-26T08:09:05;6.50;1.00
14769;DHT22;7476;49.404;11.152;2024-02-26T08:11:32;6.50;99.90
14769;DHT22;7476;49.404;11.152;2024-02-26T08:13:58;6.60;1.00
14769;DHT22;7476;49.404;11.152;2024-02-26T08:16:25;6.80;99.90
14769;DHT22;7476;49.404;11.152;2024-02-26T08:18:52;6.60;99.90
14769;DHT22;7476;49.404;11.152;2024-02-26T08:21:20;6.60;99.90
14769;DHT22;7476;49.404;11.152;2024-02-26T08:23:47;6.80;99.90
14769;DHT22;7476;49.404;11.152;2024-02-26T08:26:13;7.00;99.90
14769;DHT22;7476;49.404;11.152;2024-02-26T08:28:40;7.00;1.00
14769;DHT22;7476;49.404;11.152;2024-02-26T08:31:07;6.90;1.00
14769;DHT22;7476;49.404;11.152;2024-02-26T08:33:33;6.90;37.50
14769;DHT22;7476;49.404;11.152;2024-02-26T08:36:04;7.00;99.90
14769;DHT22;7476;49.404;11.152;2024-02-26T08:38:32;7.00;1.00
14769;DHT22;7476;49.404;11.152;2024-02-26T08:41:00;7.10;99.90
14769;DHT22;7476;49.404;11.152;2024-02-26T08:43:27;7.00;1.00
14769;DHT22;7476;49.404;11.152;2024-02-26T08:45:53;7.10;1.00
14769;DHT22;7476;49.404;11.152;2024-02-26T08:48:21;7.10;1.00
14769;DHT22;7476;49.404;11.152;2024-02-26T08:50:48;7.30;1.00
14769;DHT22;7476;49.404;11.152;2024-02-26T08:53:14;7.80;1.00
14769;DHT22;7476;49.404;11.152;2024-02-26T08:55:42;8.30;1.00
14769;DHT22;7476;49.404;11.152;2024-02-26T08:58:09;8.80;1.00
14769;DHT22;7476;49.404;11.152;2024-02-26T09:00:35;8.50;1.00
14769;DHT22;7476;49.404;11.152;2024-02-26T09:03:03;9.10;1.00
14769;DHT22;7476;49.404;11.152;2024-02-26T09:05:30;9.10;99.90
14769;DHT22;7476;49.404;11.152;2024-02-26T09:07:56;8.90;1.70
14769;DHT22;7476;49.404;11.152;2024-02-26T09:10:23;9.20;1.00
14769;DHT22;7476;49.404;11.152;2024-02-26T09:12:51;9.10;99.90
14769;DHT22;7476;49.404;11.152;2024-02-26T09:15:18;8.90;1.00
14769;DHT22;7476;49.404;11.152;2024-02-26T09:17:44;9.10;1.00
14769;DHT22;7476;49.404;11.152;2024-02-26T09:20:11;8.80;1.00
14769;DHT22;7476;49.404;11.152;2024-02-26T09:22:41;8.80;1.00
14769;DHT22;7476;49.404;11.152;2024-02-26T09:25:08;9.30;1.00
14769;DHT22;7476;49.404;11.152;2024-02-26T09:27:35;9.20;1.00
14769;DHT22;7476;49.404;11.152;2024-02-26T09:30:04;9.60;1.00
14769;DHT22;7476;49.404;11.152;2024-02-26T09:32:30;10.00;1.00
14769;DHT22;7476;49.404;11.152;2024-02-26T09:34:57;10.30;1.00
14769;DHT22;7476;49.404;11.152;2024-02-26T09:37:24;10.60;1.00
14769;DHT22;7476;49.404;11.152;2024-02-26T09:39:50;11.10;99.90
14769;DHT22;7476;49.404;11.152;2024-02-26T09:42:18;11.40;99.90
14769;DHT22;7476;49.404;11.152;2024-02-26T09:44:46;11.20;99.90
14769;DHT22;7476;49.404;11.152;2024-02-26T09:47:16;10.40;99.90
14769;DHT22;7476;49.404;11.152;2024-02-26T09:49:43;10.20;99.90
14769;DHT22;7476;49.404;11.152;2024-02-26T09:52:10;10.00;99.90
14769;DHT22;7476;49.404;11.152;2024-02-26T09:54:36;9.90;99.90
14769;DHT22;7476;49.404;11.152;2024-02-26T09:57:05;9.90;99.90
14769;DHT22;7476;49.404;11.152;2024-02-26T09:59:40;9.60;99.90
14769;DHT22;7476;49.404;11.152;2024-02-26T10:02:09;9.50;99.90
14769;DHT22;7476;49.404;11.152;2024-02-26T10:04:39;9.80;1.00
14769;DHT22;7476;49.404;11.152;2024-02-26T10:07:10;10.10;99.90
14769;DHT22;7476;49.404;11.152;2024-02-26T10:09:37;10.30;99.90
14769;DHT22;7476;49.404;11.152;2024-02-26T10:12:04;10.80;99.90
14769;DHT22;7476;49.404;11.152;2024-02-26T10:14:31;10.70;99.90
14769;DHT22;7476;49.404;11.152;2024-02-26T10:16:59;11.00;99.90
14769;DHT22;7476;49.404;11.152;2024-02-26T10:19:27;11.10;99.90
14769;DHT22;7476;49.404;11.152;2024-02-26T10:21:57;11.20;99.90
14769;DHT22;7476;49.404;11.152;2024-02-26T10:24:25;11.60;99.90
14769;DHT22;7476;49.404;11.152;2024-02-26T10:26:52;11.70;99.90
14769;DHT22;7476;49.404;11.152;2024-02-26T10:29:19;12.00;99.90
14769;DHT22;7476;49.404;11.152;2024-02-26T10:31:45;12.00;99.90
14769;DHT22;7476;49.404;11.152;2024-02-26T10:34:12;11.60;99.90
14769;DHT22;7476;49.404;11.152;2024-02-26T10:36:41;11.90;99.90
14769;DHT22;7476;49.404;11.152;2024-02-26T10:39:12;12.00;99.90
14769;DHT22;7476;49.404;11.152;2024-02-26T10:41:40;12.00;99.90
14769;DHT22;7476;49.404;11.152;2024-02-26T10:44:09;11.80;99.90
14769;DHT22;7476;49.404;11.152;2024-02-26T10:46:37;11.20;99.90
14769;DHT22;7476;49.404;11.152;2024-02-26T10:49:04;11.60;99.90
14769;DHT22;7476;49.404;11.152;2024-02-26T10:51:35;11.40;99.90
14769;DHT22;7476;49.404;11.152;2024-02-26T10:54:04;11.90;99.90
14769;DHT22;7476;49.404;11.152;2024-02-26T10:56:35;12.60;99.90
14769;DHT22;7476;49.404;11.152;2024-02-26T10:59:04;12.10;99.90
14769;DHT22;7476;49.404;11.152;2024-02-26T11:01:31;11.70;99.90
14769;DHT22;7476;49.404;11.152;2024-02-26T11:03:58;11.90;99.90
14769;DHT22;7476;49.404;11.152;2024-02-26T11:06:27;12.10;99.90
14769;DHT22;7476;49.404;11.152;2024-02-26T11:08:55;12.00;99.90
14769;DHT22;7476;49.404;11.152;2024-02-26T11:11:21;11.80;99.90
14769;DHT22;7476;49.404;11.152;2024-02-26T11:13:51;12.10;99.90
14769;DHT22;7476;49.404;11.152;2024-02-26T11:16:19;11.80;99.90
14769;DHT22;7476;49.404;11.152;2024-02-26T11:18:47;12.60;99.90
14769;DHT22;7476;49.404;11.152;2024-02-26T11:21:15;12.10;99.90
14769;DHT22;7476;49.404;11.152;2024-02-26T11:23:44;12.80;99.90
14769;DHT22;7476;49.404;11.152;2024-02-26T11:26:11;13.90;99.90
14769;DHT22;7476;49.404;11.152;2024-02-26T11:28:39;15.30;99.90
14769;DHT22;7476;49.404;11.152;2024-02-26T11:31:08;14.80;95.10
14769;DHT22;7476;49.404;11.152;2024-02-26T11:33:35;14.70;72.90
14769;DHT22;7476;49.404;11.152;2024-02-26T11:36:03;14.90;54.70
14769;DHT22;7476;49.404;11.152;2024-02-26T11:38:34;14.80;62.80
14769;DHT22;7476;49.404;11.152;2024-02-26T11:41:00;15.10;48.50
14769;DHT22;7476;49.404;11.152;2024-02-26T11:43:51;15.30;38.90
14769;DHT22;7476;49.404;11.152;2024-02-26T11:46:30;15.20;31.20
14769;DHT22;7476;49.404;11.152;2024-02-26T11:48:59;16.10;21.30
14769;DHT22;7476;49.404;11.152;2024-02-26T11:51:26;15.50;9.80
14769;DHT22;7476;49.404;11.152;2024-02-26T11:53:54;14.40;8.50
14769;DHT22;7476;49.404;11.152;2024-02-26T11:56:23;14.20;4.40
14769;DHT22;7476;49.404;11.152;2024-02-26T11:58:58;15.20;3.40
14769;DHT22;7476;49.404;11.152;2024-02-26T12:01:42;16.50;10.10
14769;DHT22;7476;49.404;11.152;2024-02-26T12:04:18;15.70;4.50
14769;DHT22;7476;49.404;11.152;2024-02-26T12:06:47;16.90;17.80
14769;DHT22;7476;49.404;11.152;2024-02-26T12:09:16;18.00;1.00
14769;DHT22;7476;49.404;11.152;2024-02-26T12:11:56;18.10;1.00
14769;DHT22;7476;49.404;11.152;2024-02-26T12:14:25;18.00;1.00
14769;DHT22;7476;49.404;11.152;2024-02-26T12:16:55;16.20;1.00
14769;DHT22;7476;49.404;11.152;2024-02-26T12:19:24;16.80;1.00
14769;DHT22;7476;49.404;11.152;2024-02-26T12:21:51;17.30;1.00
14769;DHT22;7476;49.404;11.152;2024-02-26T12:24:19;17.10;1.00
14769;DHT22;7476;49.404;11.152;2024-02-26T12:26:46;16.40;1.00
14769;DHT22;7476;49.404;11.152;2024-02-26T12:29:13;17.10;1.00
14769;DHT22;7476;49.404;11.152;2024-02-26T12:31:40;17.50;1.00
14769;DHT22;7476;49.404;11.152;2024-02-26T12:34:09;17.40;1.00
14769;DHT22;7476;49.404;11.152;2024-02-26T12:36:36;16.80;1.00
14769;DHT22;7476;49.404;11.152;2024-02-26T12:39:03;15.70;1.00
14769;DHT22;7476;49.404;11.152;2024-02-26T12:41:31;14.50;1.00
14769;DHT22;7476;49.404;11.152;2024-02-26T12:43:58;14.50;1.00
14769;DHT22;7476;49.404;11.152;2024-02-26T12:46:25;14.70;1.00
14769;DHT22;7476;49.404;11.152;2024-02-26T12:48:52;14.40;1.00
14769;DHT22;7476;49.404;11.152;2024-02-26T12:51:21;15.40;1.00
14769;DHT22;7476;49.404;11.152;2024-02-26T12:53:48;16.10;1.00
14769;DHT22;7476;49.404;11.152;2024-02-26T12:56:17;16.20;1.00
14769;DHT22;7476;49.404;11.152;2024-02-26T12:58:45;15.60;1.00
14769;DHT22;7476;49.404;11.152;2024-02-26T13:01:14;16.60;1.00
14769;DHT22;7476;49.404;11.152;2024-02-26T13:03:41;17.50;1.00
14769;DHT22;7476;49.404;11.152;2024-02-26T13:06:09;19.40;1.00
14769;DHT22;7476;49.404;11.152;2024-02-26T13:08:37;20.30;1.00
14769;DHT22;7476;49.404;11.152;2024-02-26T13:11:04;19.00;1.00
14769;DHT22;7476;49.404;11.152;2024-02-26T13:13:31;20.00;1.00
14769;DHT22;7476;49.404;11.152;2024-02-26T13:16:05;18.90;1.00
14769;DHT22;7476;49.404;11.152;2024-02-26T13:18:33;17.90;1.00
14769;DHT22;7476;49.404;11.152;2024-02-26T13:21:08;18.20;1.00
14769;DHT22;7476;49.404;11.152;2024-02-26T13:23:36;17.60;1.00
14769;DHT22;7476;49.404;11.152;2024-02-26T13:26:03;17.80;1.00
14769;DHT22;7476;49.404;11.152;2024-02-26T13:28:30;18.60;1.00
14769;DHT22;7476;49.404;11.152;2024-02-26T13:30:58;18.30;1.00
14769;DHT22;7476;49.404;11.152;2024-02-26T13:33:27;17.20;1.00
14769;DHT22;7476;49.404;11.152;2024-02-26T13:35:55;15.80;1.00
14769;DHT22;7476;49.404;11.152;2024-02-26T13:38:21;15.60;1.00
14769;DHT22;7476;49.404;11.152;2024-02-26T13:40:49;14.70;1.00
14769;DHT22;7476;49.404;11.152;2024-02-26T13:43:16;14.00;1.00
14769;DHT22;7476;49.404;11.152;2024-02-26T13:45:43;13.90;1.00
14769;DHT22;7476;49.404;11.152;2024-02-26T13:48:10;14.10;1.00
14769;DHT22;7476;49.404;11.152;2024-02-26T13:50:37;14.30;1.00
14769;DHT22;7476;49.404;11.152;2024-02-26T13:53:04;14.10;1.00
14769;DHT22;7476;49.404;11.152;2024-02-26T13:55:31;13.70;1.00
14769;DHT22;7476;49.404;11.152;2024-02-26T13:58:00;13.60;1.00
14769;DHT22;7476;49.404;11.152;2024-02-26T14:00:27;13.10;1.00
14769;DHT22;7476;49.404;11.152;2024-02-26T14:02:54;13.20;1.00
14769;DHT22;7476;49.404;11.152;2024-02-26T14:05:21;13.40;1.00
14769;DHT22;7476;49.404;11.152;2024-02-26T14:07:47;13.60;1.00
14769;DHT22;7476;49.404;11.152;2024-02-26T14:10:14;13.80;1.00
14769;DHT22;7476;49.404;11.152;2024-02-26T14:12:42;13.90;1.00
14769;DHT22;7476;49.404;11.152;2024-02-26T14:15:10;13.70;1.00
14769;DHT22;7476;49.404;11.152;2024-02-26T14:17:37;13.40;1.00
14769;DHT22;7476;49.404;11.152;2024-02-26T14:20:05;13.40;1.00
14769;DHT22;7476;49.404;11.152;2024-02-26T14:22:33;13.40;1.00
14769;DHT22;7476;49.404;11.152;2024-02-26T14:25:00;13.00;1.00
14769;DHT22;7476;49.404;11.152;2024-02-26T14:27:26;12.60;1.00
14769;DHT22;7476;49.404;11.152;2024-02-26T14:29:53;12.60;1.00
14769;DHT22;7476;49.404;11.152;2024-02-26T14:32:22;12.70;1.00
14769;DHT22;7476;49.404;11.152;2024-02-26T14:34:48;12.70;1.00
14769;DHT22;7476;49.404;11.152;2024-02-26T14:37:15;12.50;1.00
14769;DHT22;7476;49.404;11.152;2024-02-26T14:39:42;12.50;1.00
14769;DHT22;7476;49.404;11.152;2024-02-26T14:42:08;12.60;1.00
14769;DHT22;7476;49.404;11.152;2024-02-26T14:44:35;12.70;1.00
14769;DHT22;7476;49.404;11.152;2024-02-26T14:47:02;12.60;1.00
14769;DHT22;7476;49.404;11.152;2024-02-26T14:49:30;12.40;1.00
14769;DHT22;7476;49.404;11.152;2024-02-26T14:51:57;12.20;1.00
14769;DHT22;7476;49.404;11.152;2024-02-26T14:54:24;12.30;1.00
14769;DHT22;7476;49.404;11.152;2024-02-26T14:56:50;12.40;1.00
14769;DHT22;7476;49.404;11.152;2024-02-26T14:59:17;12.50;1.00
14769;DHT22;7476;49.404;11.152;2024-02-26T15:01:44;12.40;1.00
14769;DHT22;7476;49.404;11.152;2024-02-26T15:04:11;12.30;1.00
14769;DHT22;7476;49.404;11.152;2024-02-26T15:06:39;12.20;1.00
14769;DHT22;7476;49.404;11.152;2024-02-26T15:09:06;12.20;1.00
14769;DHT22;7476;49.404;11.152;2024-02-26T15:11:33;12.10;1.00
14769;DHT22;7476;49.404;11.152;2024-02-26T15:13:59;12.00;1.00
14769;DHT22;7476;49.404;11.152;2024-02-26T15:16:26;11.90;1.00
14769;DHT22;7476;49.404;11.152;2024-02-26T15:18:54;11.90;1.00
14769;DHT22;7476;49.404;11.152;2024-02-26T15:21:20;11.70;1.00
14769;DHT22;7476;49.404;11.152;2024-02-26T15:23:48;11.60;1.00
14769;DHT22;7476;49.404;11.152;2024-02-26T15:26:17;11.60;1.00
14769;DHT22;7476;49.404;11.152;2024-02-26T15:28:43;11.60;1.00
14769;DHT22;7476;49.404;11.152;2024-02-26T15:31:10;11.60;1.00
14769;DHT22;7476;49.404;11.152;2024-02-26T15:33:37;11.50;1.00
14769;DHT22;7476;49.404;11.152;2024-02-26T15:36:04;11.50;1.00
14769;DHT22;7476;49.404;11.152;2024-02-26T15:38:34;11.40;1.00
14769;DHT22;7476;49.404;11.152;2024-02-26T15:41:03;11.30;1.00
14769;DHT22;7476;49.404;11.152;2024-02-26T15:43:29;11.30;1.00
14769;DHT22;7476;49.404;11.152;2024-02-26T15:45:56;11.20;1.00